createdAt,value
2022-12-17T00:01:02.517Z,12.18
2022-12-17T00:03:51.169Z,9.55
2022-12-17T00:06:39.758Z,9.43
2022-12-17T00:09:25.031Z,9.02
2022-12-17T00:12:10.554Z,10.35
2022-12-17T00:14:56.926Z,9.40
2022-12-17T00:17:42.773Z,9.23
2022-12-17T00:20:31.194Z,9.93
2022-12-17T00:23:21.570Z,9.05
2022-12-17T00:26:14.294Z,7.22
2022-12-17T00:29:04.654Z,7.63
2022-12-17T00:31:49.779Z,7.65
2022-12-17T00:34:37.456Z,8.68
2022-12-17T00:37:22.917Z,9.50
2022-12-17T00:40:08.269Z,9.73
2022-12-17T00:42:56.385Z,10.38
2022-12-17T00:45:44.459Z,13.30
2022-12-17T00:48:31.985Z,13.55
2022-12-17T00:51:17.348Z,10.63
2022-12-17T00:54:05.709Z,9.27
2022-12-17T00:56:52.409Z,8.43
2022-12-17T00:59:38.322Z,8.75
2022-12-17T01:02:26.637Z,7.85
2022-12-17T01:05:14.122Z,8.55
2022-12-17T01:07:59.192Z,9.27
2022-12-17T01:10:44.833Z,8.27
2022-12-17T01:13:33.982Z,8.63
2022-12-17T01:16:33.103Z,10.32
2022-12-17T01:19:18.640Z,10.75
2022-12-17T01:22:04.261Z,9.30
2022-12-17T01:24:49.700Z,8.80
2022-12-17T01:27:37.376Z,10.05
2022-12-17T01:30:33.454Z,10.30
2022-12-17T01:33:23.777Z,8.60
2022-12-17T01:36:15.218Z,9.00
2022-12-17T01:39:00.896Z,8.43
2022-12-17T01:41:48.665Z,7.85
2022-12-17T01:45:11.446Z,9.20
2022-12-17T01:48:07.029Z,7.05
2022-12-17T01:51:00.744Z,7.90
2022-12-17T01:53:51.421Z,7.55
2022-12-17T01:56:36.616Z,8.07
2022-12-17T01:59:23.682Z,7.90
2022-12-17T02:02:12.134Z,8.85
2022-12-17T02:05:00.347Z,8.93
2022-12-17T02:08:02.348Z,7.75
2022-12-17T02:11:23.286Z,6.47
2022-12-17T02:14:41.102Z,6.18
2022-12-17T02:17:35.328Z,5.00
2022-12-17T02:20:42.406Z,5.88
2022-12-17T02:23:53.475Z,5.63
2022-12-17T02:27:07.524Z,4.25
2022-12-17T02:29:59.758Z,6.15
2022-12-17T02:32:50.850Z,6.90
2022-12-17T02:35:45.551Z,8.13
2022-12-17T02:38:39.918Z,6.07
2022-12-17T02:41:34.589Z,5.07
2022-12-17T02:44:25.715Z,5.25
2022-12-17T02:47:14.754Z,5.57
2022-12-17T02:50:00.029Z,7.32
2022-12-17T02:52:53.508Z,7.20
2022-12-17T02:55:39.253Z,6.63
2022-12-17T02:58:26.641Z,6.93
2022-12-17T03:01:12.317Z,6.18
2022-12-17T03:03:58.682Z,7.38
2022-12-17T03:06:48.214Z,6.78
2022-12-17T03:09:35.730Z,5.63
2022-12-17T03:12:21.593Z,8.85
2022-12-17T03:15:07.137Z,6.22
2022-12-17T03:17:52.418Z,6.82
2022-12-17T03:20:37.637Z,6.65
2022-12-17T03:23:25.973Z,6.88
2022-12-17T03:26:11.774Z,6.35
2022-12-17T03:29:08.197Z,5.63
2022-12-17T03:31:56.598Z,5.65
2022-12-17T03:34:42.015Z,7.28
2022-12-17T03:37:32.632Z,5.15
2022-12-17T03:40:20.334Z,6.35
2022-12-17T03:43:07.871Z,5.10
2022-12-17T03:45:53.283Z,6.85
2022-12-17T03:48:40.868Z,6.00
2022-12-17T03:51:25.802Z,6.97
2022-12-17T03:54:11.883Z,5.25
2022-12-17T03:56:57.261Z,7.85
2022-12-17T03:59:42.294Z,7.10
2022-12-17T04:02:27.449Z,6.75
2022-12-17T04:08:30.482Z,7.13
2022-12-17T04:11:18.620Z,8.05
2022-12-17T04:14:08.369Z,7.07
2022-12-17T04:16:53.578Z,5.72
2022-12-17T04:19:38.924Z,6.47
2022-12-17T04:22:25.269Z,7.05
2022-12-17T04:25:10.629Z,6.32
2022-12-17T04:27:56.035Z,10.80
2022-12-17T04:30:41.442Z,10.60
2022-12-17T04:33:26.637Z,11.50
2022-12-17T04:36:11.756Z,9.30
2022-12-17T04:38:57.173Z,9.98
2022-12-17T04:41:46.554Z,9.75
2022-12-17T04:44:32.007Z,9.82
2022-12-17T04:47:17.067Z,10.60
2022-12-17T04:50:02.964Z,12.15
2022-12-17T04:52:48.439Z,15.77
2022-12-17T04:55:36.368Z,12.85
2022-12-17T04:58:25.184Z,12.77
2022-12-17T05:01:11.970Z,11.32
2022-12-17T05:03:58.051Z,10.93
2022-12-17T05:06:43.554Z,10.52
2022-12-17T05:09:28.853Z,11.35
2022-12-17T05:12:16.306Z,12.68
2022-12-17T05:15:04.646Z,12.07
2022-12-17T05:17:49.618Z,11.70
2022-12-17T05:20:37.450Z,12.77
2022-12-17T05:23:26.067Z,10.75
2022-12-17T05:26:24.913Z,10.85
2022-12-17T05:29:15.409Z,12.38
2022-12-17T05:32:03.534Z,15.45
2022-12-17T05:34:48.776Z,15.23
2022-12-17T05:37:33.962Z,12.35
2022-12-17T05:40:22.446Z,10.70
2022-12-17T05:43:15.903Z,8.85
2022-12-17T05:46:04.621Z,10.25
2022-12-17T05:48:51.719Z,12.15
2022-12-17T05:51:39.046Z,11.48
2022-12-17T05:54:25.413Z,10.43
2022-12-17T05:57:11.794Z,9.15
2022-12-17T05:59:57.007Z,13.02
2022-12-17T06:02:42.159Z,11.98
2022-12-17T06:05:28.426Z,10.77
2022-12-17T06:08:21.780Z,11.52
2022-12-17T06:11:06.932Z,10.40
2022-12-17T06:13:52.537Z,11.07
2022-12-17T06:16:38.569Z,11.30
2022-12-17T06:19:30.134Z,10.45
2022-12-17T06:22:19.545Z,18.13
2022-12-17T06:25:05.044Z,17.58
2022-12-17T06:30:49.252Z,8.45
2022-12-17T06:33:35.167Z,11.15
2022-12-17T06:36:22.805Z,14.40
2022-12-17T06:39:08.453Z,12.00
2022-12-17T06:42:00.468Z,11.25
2022-12-17T06:44:49.501Z,12.43
2022-12-17T06:47:37.600Z,10.13
2022-12-17T06:50:23.305Z,13.18
2022-12-17T06:53:27.809Z,16.10
2022-12-17T06:56:16.630Z,10.93
2022-12-17T06:59:06.735Z,10.50
2022-12-17T07:01:52.289Z,10.88
2022-12-17T07:04:37.576Z,10.30
2022-12-17T07:07:22.526Z,8.35
2022-12-17T07:10:13.696Z,8.40
2022-12-17T07:12:59.782Z,10.73
2022-12-17T07:15:47.646Z,9.93
2022-12-17T07:18:34.597Z,8.48
2022-12-17T07:21:20.700Z,10.70
2022-12-17T07:24:06.220Z,8.45
2022-12-17T07:26:51.441Z,14.60
2022-12-17T07:29:36.524Z,8.18
2022-12-17T07:32:24.543Z,12.00
2022-12-17T07:35:09.923Z,10.60
2022-12-17T07:37:57.501Z,9.10
2022-12-17T07:40:42.874Z,8.55
2022-12-17T07:43:32.094Z,8.90
2022-12-17T07:46:17.388Z,8.30
2022-12-17T07:49:04.660Z,9.10
2022-12-17T07:51:50.170Z,8.95
2022-12-17T07:54:37.511Z,9.00
2022-12-17T07:57:22.712Z,17.17
2022-12-17T08:00:10.289Z,11.32
2022-12-17T08:02:58.147Z,9.55
2022-12-17T08:05:43.403Z,8.80
2022-12-17T08:08:30.367Z,10.40
2022-12-17T08:11:16.227Z,8.98
2022-12-17T08:14:01.908Z,8.65
2022-12-17T08:16:50.092Z,7.45
2022-12-17T08:19:39.845Z,7.57
2022-12-17T08:22:28.453Z,9.55
2022-12-17T08:25:16.351Z,6.38
2022-12-17T08:28:04.585Z,7.38
2022-12-17T08:31:00.953Z,6.97
2022-12-17T08:33:47.568Z,7.72
2022-12-17T08:36:32.804Z,7.47
2022-12-17T08:39:17.883Z,9.05
2022-12-17T08:42:04.618Z,8.10
2022-12-17T08:44:56.100Z,8.23
2022-12-17T08:50:38.874Z,8.20
2022-12-17T08:53:34.556Z,7.07
2022-12-17T08:56:23.019Z,8.15
2022-12-17T08:59:08.563Z,7.25
2022-12-17T09:01:54.002Z,10.20
2022-12-17T09:04:40.198Z,8.05
2022-12-17T09:07:25.606Z,10.35
2022-12-17T09:10:11.141Z,11.20
2022-12-17T09:13:01.165Z,10.23
2022-12-17T09:15:50.225Z,9.73
2022-12-17T09:18:39.959Z,10.95
2022-12-17T09:21:28.034Z,14.95
2022-12-17T09:24:13.204Z,20.08
2022-12-17T09:26:59.188Z,16.67
2022-12-17T09:29:50.113Z,11.40
2022-12-17T09:32:35.561Z,9.98
2022-12-17T09:35:24.081Z,12.48
2022-12-17T09:38:13.171Z,13.00
2022-12-17T09:41:08.731Z,11.77
2022-12-17T09:44:05.644Z,12.98
2022-12-17T09:47:02.699Z,12.27
2022-12-17T09:49:48.238Z,11.63
2022-12-17T09:52:46.817Z,10.80
2022-12-17T09:55:37.999Z,10.55
2022-12-17T09:58:47.092Z,10.30
2022-12-17T10:01:46.104Z,12.45
2022-12-17T10:04:36.567Z,11.80
2022-12-17T10:07:31.821Z,11.93
2022-12-17T10:10:20.776Z,13.87
2022-12-17T10:13:07.914Z,13.02
2022-12-17T10:15:55.679Z,12.45
2022-12-17T10:18:43.995Z,12.88
2022-12-17T10:21:30.416Z,12.50
2022-12-17T10:24:26.731Z,12.70
2022-12-17T10:27:12.624Z,13.10
2022-12-17T10:30:03.043Z,13.27
2022-12-17T10:32:50.940Z,11.48
2022-12-17T10:36:01.722Z,13.10
2022-12-17T10:38:49.194Z,13.38
2022-12-17T10:41:48.864Z,12.27
2022-12-17T10:44:43.666Z,12.55
2022-12-17T10:47:37.772Z,12.75
2022-12-17T10:50:31.837Z,12.70
2022-12-17T10:53:19.075Z,13.15
2022-12-17T10:56:07.145Z,13.57
2022-12-17T10:58:54.264Z,15.15
2022-12-17T11:01:45.979Z,13.90
2022-12-17T11:04:40.373Z,12.40
2022-12-17T11:07:32.398Z,13.30
2022-12-17T11:10:20.077Z,13.13
2022-12-17T11:13:21.158Z,14.25
2022-12-17T11:16:15.513Z,14.48
2022-12-17T11:19:16.587Z,14.45
2022-12-17T11:22:10.038Z,22.05
2022-12-17T11:25:20.523Z,14.43
2022-12-17T11:31:07.849Z,14.70
2022-12-17T11:34:03.935Z,15.45
2022-12-17T11:37:04.176Z,15.18
2022-12-17T11:40:08.527Z,15.43
2022-12-17T11:43:23.907Z,15.25
2022-12-17T11:46:33.637Z,17.08
2022-12-17T11:49:38.175Z,14.98
2022-12-17T11:52:59.023Z,15.90
2022-12-17T11:56:03.369Z,16.98
2022-12-17T11:59:08.352Z,14.38
2022-12-17T12:02:02.833Z,15.07
2022-12-17T12:04:48.138Z,15.45
2022-12-17T12:07:39.364Z,15.90
2022-12-17T12:10:34.641Z,15.57
2022-12-17T12:13:39.719Z,17.00
2022-12-17T12:16:44.094Z,15.77
2022-12-17T12:19:46.632Z,16.38
2022-12-17T12:22:31.748Z,17.00
2022-12-17T12:25:57.863Z,18.42
2022-12-17T12:28:59.585Z,17.23
2022-12-17T12:31:49.665Z,17.75
2022-12-17T12:37:31.409Z,16.65
2022-12-17T12:40:58.313Z,17.80
2022-12-17T12:43:53.970Z,20.95
2022-12-17T12:47:15.109Z,16.70
2022-12-17T12:50:08.569Z,17.60
2022-12-17T12:52:59.545Z,18.15
2022-12-17T12:55:56.549Z,18.42
2022-12-17T12:58:49.923Z,18.60
2022-12-17T13:01:38.917Z,18.30
2022-12-17T13:04:52.547Z,25.50
2022-12-17T13:09:54.637Z,21.48
2022-12-17T13:12:44.824Z,17.88
2022-12-17T13:15:26.842Z,17.40
2022-12-17T13:20:43.232Z,17.10
2022-12-17T13:23:31.057Z,17.63
2022-12-17T13:26:23.077Z,17.38
2022-12-17T13:28:54.917Z,16.65
2022-12-17T13:31:26.478Z,18.15
2022-12-17T13:34:26.292Z,18.03
2022-12-17T13:37:23.120Z,16.83
2022-12-17T13:39:59.796Z,18.20
2022-12-17T13:42:34.186Z,16.73
2022-12-17T13:45:01.651Z,17.83
2022-12-17T13:47:31.738Z,19.55
2022-12-17T13:50:33.232Z,18.23
2022-12-17T13:52:51.667Z,18.60
2022-12-17T13:55:23.486Z,19.55
2022-12-17T13:57:54.016Z,18.38
2022-12-17T14:00:29.268Z,16.33
2022-12-17T14:03:11.360Z,17.90
2022-12-17T14:05:43.659Z,17.85
2022-12-17T14:08:17.539Z,20.55
2022-12-17T14:11:14.597Z,19.63
2022-12-17T14:16:50.500Z,18.58
2022-12-17T14:19:20.306Z,18.13
2022-12-17T14:21:47.375Z,20.63
2022-12-17T14:24:15.283Z,17.20
2022-12-17T14:26:54.248Z,17.13
2022-12-17T14:29:29.584Z,17.27
2022-12-17T14:32:20.671Z,18.65
2022-12-17T14:34:47.548Z,17.30
2022-12-17T14:37:32.356Z,25.27
2022-12-17T14:40:04.499Z,17.67
2022-12-17T14:42:35.034Z,16.40
2022-12-17T14:45:13.479Z,17.20
2022-12-17T14:47:51.308Z,18.13
2022-12-17T14:50:18.466Z,16.55
2022-12-17T14:55:57.776Z,15.48
2022-12-17T14:58:32.906Z,15.30
2022-12-17T15:01:11.664Z,15.05
2022-12-17T15:03:41.046Z,17.95
2022-12-17T15:06:11.736Z,15.85
2022-12-17T15:08:44.377Z,17.10
2022-12-17T15:11:19.646Z,16.90
2022-12-17T15:13:56.257Z,15.35
2022-12-17T15:16:23.724Z,15.30
2022-12-17T15:18:50.378Z,18.30
2022-12-17T15:21:19.228Z,17.10
2022-12-17T15:23:47.098Z,17.10
2022-12-17T15:26:20.790Z,16.40
2022-12-17T15:28:59.411Z,17.45
2022-12-17T15:31:33.546Z,17.13
2022-12-17T15:34:02.493Z,16.75
2022-12-17T15:36:35.246Z,14.73
2022-12-17T15:44:20.793Z,15.35
2022-12-17T15:46:49.820Z,17.25
2022-12-17T15:49:16.480Z,17.33
2022-12-17T15:51:45.338Z,19.45
2022-12-17T15:54:12.027Z,17.88
2022-12-17T15:56:40.876Z,17.23
2022-12-17T15:59:07.858Z,17.38
2022-12-17T16:01:36.975Z,19.27
2022-12-17T16:04:04.200Z,17.85
2022-12-17T16:06:30.782Z,19.20
2022-12-17T16:08:58.532Z,19.40
2022-12-17T16:11:25.254Z,17.58
2022-12-17T16:13:55.811Z,21.20
2022-12-17T16:16:23.303Z,23.00
2022-12-17T16:18:53.151Z,22.52
2022-12-17T16:21:22.145Z,20.98
2022-12-17T16:23:50.681Z,20.45
2022-12-17T16:26:19.158Z,22.08
2022-12-17T16:28:47.930Z,23.33
2022-12-17T16:31:15.411Z,21.45
2022-12-17T16:33:47.364Z,21.20
2022-12-17T16:36:16.752Z,19.73
2022-12-17T16:38:48.231Z,21.02
2022-12-17T16:41:16.357Z,20.50
2022-12-17T16:43:43.655Z,19.50
2022-12-17T16:46:29.999Z,17.38
2022-12-17T16:48:58.663Z,17.50
2022-12-17T16:51:29.276Z,22.30
2022-12-17T16:53:58.497Z,20.40
2022-12-17T16:56:27.765Z,19.95
2022-12-17T16:58:57.470Z,21.15
2022-12-17T17:01:27.685Z,18.15
2022-12-17T17:03:57.373Z,18.55
2022-12-17T17:06:33.229Z,17.08
2022-12-17T17:09:03.920Z,18.88
2022-12-17T17:11:33.749Z,19.58
2022-12-17T17:14:00.884Z,19.10
2022-12-17T17:16:31.163Z,22.08
2022-12-17T17:18:58.145Z,24.92
2022-12-17T17:21:27.507Z,21.80
2022-12-17T17:24:22.194Z,21.70
2022-12-17T17:26:51.003Z,20.65
2022-12-17T17:29:19.102Z,19.27
2022-12-17T17:34:34.427Z,19.33
2022-12-17T17:37:05.952Z,19.02
2022-12-17T17:39:33.452Z,19.20
2022-12-17T17:42:02.943Z,19.90
2022-12-17T17:44:29.976Z,18.65
2022-12-17T17:46:56.797Z,18.85
2022-12-17T17:49:25.819Z,20.88
2022-12-17T17:52:08.830Z,19.73
2022-12-17T17:54:38.795Z,19.48
2022-12-17T17:57:06.761Z,22.45
2022-12-17T17:59:34.409Z,19.50
2022-12-17T18:08:27.831Z,17.80
2022-12-17T18:10:56.394Z,19.20
2022-12-17T18:13:41.655Z,17.90
2022-12-17T18:16:12.810Z,20.20
2022-12-17T18:18:40.312Z,17.70
2022-12-17T18:21:10.643Z,19.08
2022-12-17T18:23:37.891Z,19.27
2022-12-17T18:26:12.301Z,18.42
2022-12-17T18:28:42.093Z,19.38
2022-12-17T18:31:14.951Z,19.42
2022-12-17T18:33:49.927Z,21.20
2022-12-17T18:38:46.124Z,14.93
2022-12-17T18:41:36.430Z,21.20
2022-12-17T18:44:05.061Z,21.27
2022-12-17T18:46:33.456Z,21.98
2022-12-17T18:49:05.873Z,21.73
2022-12-17T18:51:37.286Z,23.25
2022-12-17T18:54:20.131Z,23.40
2022-12-17T18:59:45.051Z,28.10
2022-12-17T19:02:13.672Z,23.85
2022-12-17T19:04:41.178Z,19.92
2022-12-17T19:07:08.003Z,22.13
2022-12-17T19:09:35.177Z,20.83
2022-12-17T19:12:04.050Z,20.80
2022-12-17T19:14:30.992Z,22.92
2022-12-17T19:17:00.193Z,24.48
2022-12-17T19:19:29.531Z,24.98
2022-12-17T19:21:58.853Z,23.58
2022-12-17T19:24:25.697Z,23.88
2022-12-17T19:26:55.930Z,20.20
2022-12-17T19:29:26.820Z,19.15
2022-12-17T19:31:53.510Z,18.10
2022-12-17T19:34:20.144Z,17.48
2022-12-17T19:36:50.286Z,19.85
2022-12-17T19:39:19.852Z,19.17
2022-12-17T19:41:50.337Z,18.85
2022-12-17T19:44:22.880Z,19.15
2022-12-17T19:46:49.735Z,19.60
2022-12-17T19:49:17.648Z,19.58
2022-12-17T19:51:44.920Z,19.88
2022-12-17T19:54:15.391Z,19.02
2022-12-17T19:56:45.157Z,20.50
2022-12-17T19:59:12.621Z,20.60
2022-12-17T20:01:45.827Z,20.00
2022-12-17T20:04:14.140Z,17.85
2022-12-17T20:06:44.196Z,16.42
2022-12-17T20:09:11.859Z,16.73
2022-12-17T20:11:38.881Z,18.38
2022-12-17T20:14:07.662Z,17.88
2022-12-17T20:16:50.003Z,18.30
2022-12-17T20:19:22.009Z,15.23
2022-12-17T20:21:49.967Z,18.02
2022-12-17T20:24:17.141Z,18.33
2022-12-17T20:26:48.345Z,17.60
2022-12-17T20:29:17.389Z,15.77
2022-12-17T20:31:49.369Z,18.13
2022-12-17T20:34:21.517Z,19.55
2022-12-17T20:36:52.356Z,19.33
2022-12-17T20:39:25.938Z,19.27
2022-12-17T20:41:54.934Z,20.95
2022-12-17T20:44:21.638Z,18.70
2022-12-17T20:46:50.921Z,19.35
2022-12-17T20:49:21.269Z,22.65
2022-12-17T20:51:48.014Z,21.67
2022-12-17T20:54:14.958Z,18.98
2022-12-17T20:56:41.573Z,19.58
2022-12-17T20:59:15.027Z,18.33
2022-12-17T21:01:44.031Z,19.83
2022-12-17T21:04:15.035Z,19.20
2022-12-17T21:06:44.848Z,18.27
2022-12-17T21:09:15.073Z,18.20
2022-12-17T21:11:44.184Z,19.02
2022-12-17T21:14:13.713Z,27.20
2022-12-17T21:16:41.788Z,16.88
2022-12-17T21:19:11.970Z,18.55
2022-12-17T21:21:38.709Z,17.90
2022-12-17T21:24:09.093Z,22.77
2022-12-17T21:26:46.944Z,16.02
2022-12-17T21:29:18.196Z,22.15
2022-12-17T21:31:49.366Z,31.33
2022-12-17T21:34:24.660Z,24.20
2022-12-17T21:36:54.081Z,15.57
2022-12-17T21:39:21.191Z,18.77
2022-12-17T21:42:07.596Z,17.20
2022-12-17T21:44:36.980Z,15.43
2022-12-17T21:47:04.005Z,15.82
2022-12-17T21:49:32.843Z,15.38
2022-12-17T21:52:03.675Z,18.10
2022-12-17T21:54:32.820Z,19.20
2022-12-17T21:56:59.484Z,18.38
2022-12-17T21:59:30.908Z,18.67
2022-12-17T22:01:59.842Z,18.73
2022-12-17T22:04:26.889Z,17.98
2022-12-17T22:06:59.937Z,15.18
2022-12-17T22:09:43.135Z,17.15
2022-12-17T22:12:40.008Z,20.52
2022-12-17T22:15:10.188Z,19.67
2022-12-17T22:17:41.710Z,15.70
2022-12-17T22:20:09.504Z,15.27
2022-12-17T22:22:40.699Z,17.38
2022-12-17T22:25:09.606Z,13.43
2022-12-17T22:27:39.307Z,17.30
2022-12-17T22:30:30.449Z,15.57
2022-12-17T22:33:01.641Z,14.98
2022-12-17T22:37:36.236Z,15.73
2022-12-17T22:41:33.594Z,14.63
2022-12-17T22:44:38.489Z,18.63
2022-12-17T22:44:42.606Z,13.27
2022-12-17T22:46:57.154Z,16.05
2022-12-17T22:49:28.723Z,14.05
2022-12-17T22:51:59.442Z,14.73
2022-12-17T22:54:26.422Z,16.77
2022-12-17T22:57:35.812Z,16.95
2022-12-17T22:59:44.798Z,15.05
2022-12-17T23:02:11.611Z,17.27
2022-12-17T23:04:40.905Z,15.57
2022-12-17T23:07:08.137Z,17.60
2022-12-17T23:09:37.156Z,17.23
2022-12-17T23:18:01.294Z,17.15
2022-12-17T23:20:30.070Z,11.45
2022-12-17T23:22:56.905Z,12.70
2022-12-17T23:25:25.052Z,16.50
2022-12-17T23:27:52.328Z,13.98
2022-12-17T23:30:21.572Z,16.10
2022-12-17T23:32:50.088Z,11.65
2022-12-17T23:35:18.879Z,12.07
2022-12-17T23:37:48.830Z,13.82
2022-12-17T23:40:17.741Z,12.70
2022-12-17T23:42:44.512Z,15.68
2022-12-17T23:45:11.384Z,15.60
2022-12-17T23:47:40.659Z,18.52
2022-12-17T23:50:12.798Z,14.93
2022-12-17T23:52:41.774Z,18.50
2022-12-17T23:55:11.857Z,16.48
2022-12-17T23:57:39.284Z,16.65
